sensor_id;sensor_type;location;lat;lon;timestamp;P1;durP1;ratioP1;P2;durP2;ratioP2
10458;SDS011;5277;48.722;8.736;2023-03-24T00:01:54;5.18;;;3.10;;
10458;SDS011;5277;48.722;8.736;2023-03-24T00:04:20;5.43;;;3.30;;
10458;SDS011;5277;48.722;8.736;2023-03-24T00:06:46;7.82;;;3.42;;
10458;SDS011;5277;48.722;8.736;2023-03-24T00:09:13;8.55;;;3.60;;
10458;SDS011;5277;48.722;8.736;2023-03-24T00:11:40;4.80;;;3.45;;
10458;SDS011;5277;48.722;8.736;2023-03-24T00:14:06;4.65;;;3.33;;
10458;SDS011;5277;48.722;8.736;2023-03-24T00:16:36;7.32;;;3.67;;
10458;SDS011;5277;48.722;8.736;2023-03-24T00:19:06;5.45;;;3.45;;
10458;SDS011;5277;48.722;8.736;2023-03-24T00:21:37;4.57;;;3.28;;
10458;SDS011;5277;48.722;8.736;2023-03-24T00:24:03;4.25;;;3.40;;
10458;SDS011;5277;48.722;8.736;2023-03-24T00:26:32;6.30;;;3.50;;
10458;SDS011;5277;48.722;8.736;2023-03-24T00:28:59;6.53;;;4.10;;
10458;SDS011;5277;48.722;8.736;2023-03-24T00:31:26;9.00;;;3.75;;
10458;SDS011;5277;48.722;8.736;2023-03-24T00:33:52;6.60;;;3.45;;
10458;SDS011;5277;48.722;8.736;2023-03-24T00:36:18;5.20;;;3.08;;
10458;SDS011;5277;48.722;8.736;2023-03-24T00:38:46;5.13;;;3.63;;
10458;SDS011;5277;48.722;8.736;2023-03-24T00:41:12;5.00;;;3.53;;
10458;SDS011;5277;48.722;8.736;2023-03-24T00:43:38;4.65;;;3.58;;
10458;SDS011;5277;48.722;8.736;2023-03-24T00:46:06;3.95;;;3.13;;
10458;SDS011;5277;48.722;8.736;2023-03-24T00:48:35;6.20;;;3.20;;
10458;SDS011;5277;48.722;8.736;2023-03-24T00:51:02;4.28;;;3.25;;
10458;SDS011;5277;48.722;8.736;2023-03-24T00:53:32;5.68;;;3.58;;
10458;SDS011;5277;48.722;8.736;2023-03-24T00:55:59;5.15;;;3.17;;
10458;SDS011;5277;48.722;8.736;2023-03-24T00:58:25;6.43;;;3.60;;
10458;SDS011;5277;48.722;8.736;2023-03-24T01:00:55;5.18;;;3.45;;
10458;SDS011;5277;48.722;8.736;2023-03-24T01:03:21;5.28;;;2.78;;
10458;SDS011;5277;48.722;8.736;2023-03-24T01:05:51;4.15;;;3.22;;
10458;SDS011;5277;48.722;8.736;2023-03-24T01:08:21;3.67;;;2.95;;
10458;SDS011;5277;48.722;8.736;2023-03-24T01:10:49;4.40;;;3.38;;
10458;SDS011;5277;48.722;8.736;2023-03-24T01:13:23;4.97;;;3.85;;
10458;SDS011;5277;48.722;8.736;2023-03-24T01:15:53;6.90;;;3.58;;
10458;SDS011;5277;48.722;8.736;2023-03-24T01:18:20;5.88;;;3.75;;
10458;SDS011;5277;48.722;8.736;2023-03-24T01:20:49;4.82;;;3.13;;
10458;SDS011;5277;48.722;8.736;2023-03-24T01:23:16;5.60;;;3.90;;
10458;SDS011;5277;48.722;8.736;2023-03-24T01:25:44;4.78;;;3.78;;
10458;SDS011;5277;48.722;8.736;2023-03-24T01:28:12;5.55;;;3.75;;
10458;SDS011;5277;48.722;8.736;2023-03-24T01:30:39;5.53;;;3.95;;
10458;SDS011;5277;48.722;8.736;2023-03-24T01:33:05;4.75;;;3.63;;
10458;SDS011;5277;48.722;8.736;2023-03-24T01:35:32;5.80;;;3.70;;
10458;SDS011;5277;48.722;8.736;2023-03-24T01:37:58;5.63;;;3.88;;
10458;SDS011;5277;48.722;8.736;2023-03-24T01:40:25;5.95;;;3.85;;
10458;SDS011;5277;48.722;8.736;2023-03-24T01:42:55;4.88;;;3.92;;
10458;SDS011;5277;48.722;8.736;2023-03-24T01:54:31;4.25;;;3.42;;
10458;SDS011;5277;48.722;8.736;2023-03-24T01:56:40;6.75;;;3.80;;
10458;SDS011;5277;48.722;8.736;2023-03-24T01:59:12;5.00;;;3.40;;
10458;SDS011;5277;48.722;8.736;2023-03-24T02:01:42;7.40;;;3.60;;
10458;SDS011;5277;48.722;8.736;2023-03-24T02:04:09;4.60;;;3.35;;
10458;SDS011;5277;48.722;8.736;2023-03-24T02:06:36;7.78;;;3.78;;
10458;SDS011;5277;48.722;8.736;2023-03-24T02:09:05;4.55;;;3.35;;
10458;SDS011;5277;48.722;8.736;2023-03-24T02:11:33;5.75;;;3.90;;
10458;SDS011;5277;48.722;8.736;2023-03-24T02:14:00;6.70;;;4.00;;
10458;SDS011;5277;48.722;8.736;2023-03-24T02:22:27;7.20;;;3.50;;
10458;SDS011;5277;48.722;8.736;2023-03-24T02:30:37;4.47;;;3.80;;
10458;SDS011;5277;48.722;8.736;2023-03-24T02:39:18;5.93;;;4.15;;
10458;SDS011;5277;48.722;8.736;2023-03-24T02:42:46;5.97;;;4.38;;
10458;SDS011;5277;48.722;8.736;2023-03-24T02:50:58;5.18;;;3.90;;
10458;SDS011;5277;48.722;8.736;2023-03-24T02:59:04;7.22;;;3.65;;
10458;SDS011;5277;48.722;8.736;2023-03-24T03:01:43;11.65;;;3.92;;
10458;SDS011;5277;48.722;8.736;2023-03-24T03:04:20;7.30;;;4.00;;
10458;SDS011;5277;48.722;8.736;2023-03-24T03:06:53;6.93;;;3.70;;
10458;SDS011;5277;48.722;8.736;2023-03-24T03:09:23;6.30;;;3.67;;
10458;SDS011;5277;48.722;8.736;2023-03-24T03:11:52;4.43;;;3.60;;
10458;SDS011;5277;48.722;8.736;2023-03-24T03:14:35;7.90;;;3.88;;
10458;SDS011;5277;48.722;8.736;2023-03-24T03:17:05;7.75;;;3.90;;
10458;SDS011;5277;48.722;8.736;2023-03-24T03:19:42;5.38;;;3.88;;
10458;SDS011;5277;48.722;8.736;2023-03-24T03:22:15;6.25;;;3.60;;
10458;SDS011;5277;48.722;8.736;2023-03-24T03:24:46;7.25;;;4.10;;
10458;SDS011;5277;48.722;8.736;2023-03-24T03:27:18;5.70;;;3.83;;
10458;SDS011;5277;48.722;8.736;2023-03-24T03:29:52;6.13;;;3.75;;
10458;SDS011;5277;48.722;8.736;2023-03-24T03:32:25;5.15;;;4.28;;
10458;SDS011;5277;48.722;8.736;2023-03-24T03:35:07;5.10;;;3.40;;
10458;SDS011;5277;48.722;8.736;2023-03-24T03:37:48;6.57;;;3.30;;
10458;SDS011;5277;48.722;8.736;2023-03-24T03:40:34;6.43;;;3.63;;
10458;SDS011;5277;48.722;8.736;2023-03-24T03:43:03;4.53;;;3.47;;
10458;SDS011;5277;48.722;8.736;2023-03-24T03:45:30;6.57;;;3.90;;
10458;SDS011;5277;48.722;8.736;2023-03-24T03:47:57;5.50;;;3.90;;
10458;SDS011;5277;48.722;8.736;2023-03-24T03:50:23;4.95;;;3.83;;
10458;SDS011;5277;48.722;8.736;2023-03-24T03:52:49;7.53;;;3.63;;
10458;SDS011;5277;48.722;8.736;2023-03-24T03:55:16;6.45;;;3.63;;
10458;SDS011;5277;48.722;8.736;2023-03-24T03:57:43;5.30;;;3.60;;
10458;SDS011;5277;48.722;8.736;2023-03-24T04:00:13;4.50;;;3.65;;
10458;SDS011;5277;48.722;8.736;2023-03-24T04:02:44;7.20;;;4.05;;
10458;SDS011;5277;48.722;8.736;2023-03-24T04:05:35;6.95;;;3.90;;
10458;SDS011;5277;48.722;8.736;2023-03-24T04:08:24;5.95;;;3.95;;
10458;SDS011;5277;48.722;8.736;2023-03-24T04:21:55;6.38;;;3.75;;
10458;SDS011;5277;48.722;8.736;2023-03-24T04:24:47;4.53;;;3.65;;
10458;SDS011;5277;48.722;8.736;2023-03-24T04:33:17;7.47;;;4.15;;
10458;SDS011;5277;48.722;8.736;2023-03-24T04:35:55;7.18;;;3.55;;
10458;SDS011;5277;48.722;8.736;2023-03-24T04:38:30;6.35;;;3.70;;
10458;SDS011;5277;48.722;8.736;2023-03-24T04:40:59;5.25;;;3.53;;
10458;SDS011;5277;48.722;8.736;2023-03-24T04:43:28;5.78;;;3.90;;
10458;SDS011;5277;48.722;8.736;2023-03-24T04:46:00;5.65;;;3.95;;
10458;SDS011;5277;48.722;8.736;2023-03-24T04:48:28;7.47;;;3.67;;
10458;SDS011;5277;48.722;8.736;2023-03-24T04:50:58;4.93;;;3.72;;
10458;SDS011;5277;48.722;8.736;2023-03-24T04:53:25;7.55;;;3.75;;
10458;SDS011;5277;48.722;8.736;2023-03-24T04:55:57;7.97;;;4.40;;
10458;SDS011;5277;48.722;8.736;2023-03-24T04:58:44;10.18;;;3.65;;
10458;SDS011;5277;48.722;8.736;2023-03-24T05:01:10;4.95;;;3.88;;
10458;SDS011;5277;48.722;8.736;2023-03-24T05:03:36;8.27;;;3.67;;
10458;SDS011;5277;48.722;8.736;2023-03-24T05:06:02;4.22;;;3.53;;
10458;SDS011;5277;48.722;8.736;2023-03-24T05:08:29;6.05;;;3.33;;
10458;SDS011;5277;48.722;8.736;2023-03-24T05:10:55;5.85;;;3.67;;
10458;SDS011;5277;48.722;8.736;2023-03-24T05:13:21;4.18;;;3.63;;
10458;SDS011;5277;48.722;8.736;2023-03-24T05:15:47;9.35;;;3.53;;
10458;SDS011;5277;48.722;8.736;2023-03-24T05:18:12;10.50;;;3.92;;
10458;SDS011;5277;48.722;8.736;2023-03-24T05:20:38;8.23;;;4.10;;
10458;SDS011;5277;48.722;8.736;2023-03-24T05:23:04;7.03;;;4.10;;
10458;SDS011;5277;48.722;8.736;2023-03-24T05:25:29;6.70;;;4.00;;
10458;SDS011;5277;48.722;8.736;2023-03-24T05:27:55;5.97;;;3.80;;
10458;SDS011;5277;48.722;8.736;2023-03-24T05:30:20;7.22;;;4.20;;
10458;SDS011;5277;48.722;8.736;2023-03-24T05:32:46;6.53;;;3.60;;
10458;SDS011;5277;48.722;8.736;2023-03-24T05:35:12;5.13;;;4.00;;
10458;SDS011;5277;48.722;8.736;2023-03-24T05:37:37;7.20;;;3.60;;
10458;SDS011;5277;48.722;8.736;2023-03-24T05:40:03;5.22;;;3.60;;
10458;SDS011;5277;48.722;8.736;2023-03-24T05:42:31;7.85;;;3.63;;
10458;SDS011;5277;48.722;8.736;2023-03-24T05:44:56;7.70;;;3.75;;
10458;SDS011;5277;48.722;8.736;2023-03-24T05:47:22;5.47;;;3.60;;
10458;SDS011;5277;48.722;8.736;2023-03-24T05:49:48;5.45;;;4.00;;
10458;SDS011;5277;48.722;8.736;2023-03-24T05:52:14;5.57;;;3.90;;
10458;SDS011;5277;48.722;8.736;2023-03-24T05:54:40;8.82;;;3.90;;
10458;SDS011;5277;48.722;8.736;2023-03-24T05:57:07;7.55;;;4.15;;
10458;SDS011;5277;48.722;8.736;2023-03-24T05:59:36;10.15;;;4.90;;
10458;SDS011;5277;48.722;8.736;2023-03-24T06:02:02;9.18;;;4.43;;
10458;SDS011;5277;48.722;8.736;2023-03-24T06:04:28;7.85;;;4.25;;
10458;SDS011;5277;48.722;8.736;2023-03-24T06:06:54;6.22;;;4.18;;
10458;SDS011;5277;48.722;8.736;2023-03-24T06:09:26;9.35;;;4.80;;
10458;SDS011;5277;48.722;8.736;2023-03-24T06:11:53;7.93;;;4.88;;
10458;SDS011;5277;48.722;8.736;2023-03-24T06:14:19;11.25;;;5.00;;
10458;SDS011;5277;48.722;8.736;2023-03-24T06:16:45;7.18;;;5.10;;
10458;SDS011;5277;48.722;8.736;2023-03-24T06:19:13;6.22;;;4.25;;
10458;SDS011;5277;48.722;8.736;2023-03-24T06:21:39;9.38;;;4.47;;
10458;SDS011;5277;48.722;8.736;2023-03-24T06:24:05;6.25;;;4.88;;
10458;SDS011;5277;48.722;8.736;2023-03-24T06:26:31;10.98;;;5.72;;
10458;SDS011;5277;48.722;8.736;2023-03-24T06:28:56;13.13;;;6.25;;
10458;SDS011;5277;48.722;8.736;2023-03-24T06:31:22;12.02;;;6.43;;
10458;SDS011;5277;48.722;8.736;2023-03-24T06:33:49;11.00;;;5.43;;
10458;SDS011;5277;48.722;8.736;2023-03-24T06:36:16;9.68;;;6.22;;
10458;SDS011;5277;48.722;8.736;2023-03-24T06:38:42;11.45;;;5.82;;
10458;SDS011;5277;48.722;8.736;2023-03-24T06:41:08;9.00;;;5.70;;
10458;SDS011;5277;48.722;8.736;2023-03-24T06:43:34;10.15;;;5.38;;
10458;SDS011;5277;48.722;8.736;2023-03-24T06:46:00;10.63;;;5.40;;
10458;SDS011;5277;48.722;8.736;2023-03-24T06:48:26;9.35;;;5.32;;
10458;SDS011;5277;48.722;8.736;2023-03-24T06:50:52;6.55;;;5.25;;
10458;SDS011;5277;48.722;8.736;2023-03-24T06:53:19;12.77;;;7.60;;
10458;SDS011;5277;48.722;8.736;2023-03-24T06:55:48;14.93;;;7.78;;
10458;SDS011;5277;48.722;8.736;2023-03-24T06:58:15;10.60;;;6.03;;
10458;SDS011;5277;48.722;8.736;2023-03-24T07:00:41;8.70;;;6.28;;
10458;SDS011;5277;48.722;8.736;2023-03-24T07:03:08;8.88;;;5.97;;
10458;SDS011;5277;48.722;8.736;2023-03-24T07:05:40;8.07;;;5.30;;
10458;SDS011;5277;48.722;8.736;2023-03-24T07:08:08;7.68;;;5.05;;
10458;SDS011;5277;48.722;8.736;2023-03-24T07:10:36;7.00;;;4.90;;
10458;SDS011;5277;48.722;8.736;2023-03-24T07:13:03;11.93;;;5.15;;
10458;SDS011;5277;48.722;8.736;2023-03-24T07:15:30;11.93;;;5.00;;
10458;SDS011;5277;48.722;8.736;2023-03-24T07:17:56;9.57;;;4.70;;
10458;SDS011;5277;48.722;8.736;2023-03-24T07:20:21;7.57;;;5.03;;
10458;SDS011;5277;48.722;8.736;2023-03-24T07:22:47;9.68;;;5.15;;
10458;SDS011;5277;48.722;8.736;2023-03-24T07:25:12;7.25;;;4.80;;
10458;SDS011;5277;48.722;8.736;2023-03-24T07:27:39;13.63;;;5.40;;
10458;SDS011;5277;48.722;8.736;2023-03-24T07:30:05;7.20;;;4.93;;
10458;SDS011;5277;48.722;8.736;2023-03-24T07:32:31;11.43;;;5.05;;
10458;SDS011;5277;48.722;8.736;2023-03-24T07:35:03;13.60;;;5.03;;
10458;SDS011;5277;48.722;8.736;2023-03-24T07:37:34;6.88;;;5.20;;
10458;SDS011;5277;48.722;8.736;2023-03-24T07:40:00;7.68;;;4.88;;
10458;SDS011;5277;48.722;8.736;2023-03-24T07:42:29;8.18;;;5.30;;
10458;SDS011;5277;48.722;8.736;2023-03-24T07:44:55;6.32;;;4.85;;
10458;SDS011;5277;48.722;8.736;2023-03-24T07:47:21;10.13;;;4.75;;
10458;SDS011;5277;48.722;8.736;2023-03-24T07:49:46;10.77;;;4.78;;
10458;SDS011;5277;48.722;8.736;2023-03-24T07:52:12;6.38;;;4.40;;
10458;SDS011;5277;48.722;8.736;2023-03-24T07:54:37;5.78;;;4.47;;
10458;SDS011;5277;48.722;8.736;2023-03-24T07:57:03;9.25;;;5.38;;
10458;SDS011;5277;48.722;8.736;2023-03-24T07:59:28;14.63;;;4.97;;
10458;SDS011;5277;48.722;8.736;2023-03-24T08:01:54;8.25;;;4.60;;
10458;SDS011;5277;48.722;8.736;2023-03-24T08:04:20;6.75;;;5.03;;
10458;SDS011;5277;48.722;8.736;2023-03-24T08:06:46;6.90;;;5.20;;
10458;SDS011;5277;48.722;8.736;2023-03-24T08:09:11;9.00;;;5.03;;
10458;SDS011;5277;48.722;8.736;2023-03-24T08:11:38;8.55;;;5.45;;
10458;SDS011;5277;48.722;8.736;2023-03-24T08:14:04;10.68;;;5.40;;
10458;SDS011;5277;48.722;8.736;2023-03-24T08:16:30;9.85;;;4.93;;
10458;SDS011;5277;48.722;8.736;2023-03-24T08:18:55;5.82;;;4.20;;
10458;SDS011;5277;48.722;8.736;2023-03-24T08:21:24;8.90;;;4.05;;
10458;SDS011;5277;48.722;8.736;2023-03-24T08:23:50;5.88;;;4.05;;
10458;SDS011;5277;48.722;8.736;2023-03-24T08:26:16;7.38;;;3.85;;
10458;SDS011;5277;48.722;8.736;2023-03-24T08:28:42;4.88;;;3.70;;
10458;SDS011;5277;48.722;8.736;2023-03-24T08:31:08;4.53;;;3.20;;
10458;SDS011;5277;48.722;8.736;2023-03-24T08:33:34;4.22;;;2.90;;
10458;SDS011;5277;48.722;8.736;2023-03-24T08:36:00;6.90;;;2.50;;
10458;SDS011;5277;48.722;8.736;2023-03-24T08:38:26;5.35;;;2.50;;
10458;SDS011;5277;48.722;8.736;2023-03-24T08:41:00;3.40;;;2.58;;
10458;SDS011;5277;48.722;8.736;2023-03-24T08:43:30;2.90;;;2.60;;
10458;SDS011;5277;48.722;8.736;2023-03-24T08:45:57;3.20;;;2.63;;
10458;SDS011;5277;48.722;8.736;2023-03-24T08:48:24;3.63;;;2.20;;
10458;SDS011;5277;48.722;8.736;2023-03-24T08:50:50;2.60;;;2.22;;
10458;SDS011;5277;48.722;8.736;2023-03-24T08:53:16;2.63;;;2.22;;
10458;SDS011;5277;48.722;8.736;2023-03-24T08:55:41;3.40;;;2.50;;
10458;SDS011;5277;48.722;8.736;2023-03-24T08:58:12;2.53;;;2.20;;
10458;SDS011;5277;48.722;8.736;2023-03-24T09:00:41;2.67;;;2.25;;
10458;SDS011;5277;48.722;8.736;2023-03-24T09:03:09;4.95;;;2.30;;
10458;SDS011;5277;48.722;8.736;2023-03-24T09:05:39;5.15;;;2.40;;
10458;SDS011;5277;48.722;8.736;2023-03-24T09:08:05;3.70;;;2.25;;
10458;SDS011;5277;48.722;8.736;2023-03-24T09:10:31;2.50;;;2.30;;
10458;SDS011;5277;48.722;8.736;2023-03-24T09:12:57;3.20;;;2.17;;
10458;SDS011;5277;48.722;8.736;2023-03-24T09:15:23;2.75;;;2.20;;
10458;SDS011;5277;48.722;8.736;2023-03-24T09:17:48;3.83;;;1.80;;
10458;SDS011;5277;48.722;8.736;2023-03-24T09:20:14;3.88;;;2.17;;
10458;SDS011;5277;48.722;8.736;2023-03-24T09:22:41;3.50;;;2.28;;
10458;SDS011;5277;48.722;8.736;2023-03-24T09:25:09;3.40;;;2.30;;
10458;SDS011;5277;48.722;8.736;2023-03-24T09:27:36;2.55;;;2.17;;
10458;SDS011;5277;48.722;8.736;2023-03-24T09:30:02;4.95;;;2.10;;
10458;SDS011;5277;48.722;8.736;2023-03-24T09:32:28;4.80;;;2.50;;
10458;SDS011;5277;48.722;8.736;2023-03-24T09:34:54;2.63;;;2.00;;
10458;SDS011;5277;48.722;8.736;2023-03-24T09:37:19;4.10;;;2.33;;
10458;SDS011;5277;48.722;8.736;2023-03-24T09:39:45;2.50;;;2.00;;
10458;SDS011;5277;48.722;8.736;2023-03-24T09:42:14;2.30;;;1.90;;
10458;SDS011;5277;48.722;8.736;2023-03-24T09:44:50;4.43;;;2.20;;
10458;SDS011;5277;48.722;8.736;2023-03-24T09:47:32;3.45;;;2.30;;
10458;SDS011;5277;48.722;8.736;2023-03-24T09:50:26;2.60;;;1.85;;
10458;SDS011;5277;48.722;8.736;2023-03-24T09:52:58;2.33;;;1.83;;
10458;SDS011;5277;48.722;8.736;2023-03-24T09:55:30;3.58;;;1.80;;
10458;SDS011;5277;48.722;8.736;2023-03-24T09:58:02;3.72;;;2.25;;
10458;SDS011;5277;48.722;8.736;2023-03-24T10:00:32;1.98;;;1.67;;
10458;SDS011;5277;48.722;8.736;2023-03-24T10:03:18;1.50;;;1.30;;
10458;SDS011;5277;48.722;8.736;2023-03-24T10:05:49;1.55;;;1.30;;
10458;SDS011;5277;48.722;8.736;2023-03-24T10:08:31;3.10;;;1.40;;
10458;SDS011;5277;48.722;8.736;2023-03-24T10:11:10;1.75;;;1.30;;
10458;SDS011;5277;48.722;8.736;2023-03-24T10:14:05;2.13;;;1.38;;
10458;SDS011;5277;48.722;8.736;2023-03-24T10:16:40;1.52;;;1.20;;
10458;SDS011;5277;48.722;8.736;2023-03-24T10:21:52;2.35;;;1.80;;
10458;SDS011;5277;48.722;8.736;2023-03-24T10:27:29;1.50;;;1.35;;
10458;SDS011;5277;48.722;8.736;2023-03-24T10:30:20;2.38;;;1.40;;
10458;SDS011;5277;48.722;8.736;2023-03-24T10:32:49;2.67;;;1.35;;
10458;SDS011;5277;48.722;8.736;2023-03-24T10:35:19;1.98;;;1.40;;
10458;SDS011;5277;48.722;8.736;2023-03-24T10:37:55;2.78;;;1.48;;
10458;SDS011;5277;48.722;8.736;2023-03-24T10:40:25;1.95;;;1.30;;
10458;SDS011;5277;48.722;8.736;2023-03-24T10:42:53;2.35;;;1.27;;
10458;SDS011;5277;48.722;8.736;2023-03-24T10:45:27;2.92;;;1.50;;
10458;SDS011;5277;48.722;8.736;2023-03-24T10:47:56;1.83;;;1.10;;
10458;SDS011;5277;48.722;8.736;2023-03-24T10:50:25;1.63;;;1.30;;
10458;SDS011;5277;48.722;8.736;2023-03-24T10:52:53;1.83;;;1.20;;
10458;SDS011;5277;48.722;8.736;2023-03-24T10:55:20;6.18;;;1.17;;
10458;SDS011;5277;48.722;8.736;2023-03-24T10:57:49;1.92;;;1.30;;
10458;SDS011;5277;48.722;8.736;2023-03-24T11:00:22;1.10;;;1.00;;
10458;SDS011;5277;48.722;8.736;2023-03-24T11:05:29;1.77;;;1.08;;
10458;SDS011;5277;48.722;8.736;2023-03-24T11:10:55;1.85;;;1.02;;
10458;SDS011;5277;48.722;8.736;2023-03-24T11:16:03;1.73;;;0.93;;
10458;SDS011;5277;48.722;8.736;2023-03-24T11:21:23;1.05;;;0.93;;
10458;SDS011;5277;48.722;8.736;2023-03-24T11:23:52;1.90;;;1.13;;
10458;SDS011;5277;48.722;8.736;2023-03-24T11:28:49;1.15;;;0.95;;
10458;SDS011;5277;48.722;8.736;2023-03-24T11:31:21;0.90;;;0.80;;
10458;SDS011;5277;48.722;8.736;2023-03-24T11:36:38;1.05;;;0.93;;
10458;SDS011;5277;48.722;8.736;2023-03-24T11:39:17;1.73;;;1.05;;
10458;SDS011;5277;48.722;8.736;2023-03-24T11:42:01;1.70;;;1.15;;
10458;SDS011;5277;48.722;8.736;2023-03-24T11:49:51;1.17;;;1.08;;
10458;SDS011;5277;48.722;8.736;2023-03-24T11:55:33;2.20;;;0.90;;
10458;SDS011;5277;48.722;8.736;2023-03-24T12:00:52;2.45;;;1.00;;
10458;SDS011;5277;48.722;8.736;2023-03-24T12:05:58;1.70;;;1.10;;
10458;SDS011;5277;48.722;8.736;2023-03-24T12:14:49;1.00;;;0.88;;
10458;SDS011;5277;48.722;8.736;2023-03-24T12:17:16;3.22;;;1.20;;
10458;SDS011;5277;48.722;8.736;2023-03-24T12:22:35;2.10;;;1.10;;
10458;SDS011;5277;48.722;8.736;2023-03-24T12:25:17;1.58;;;0.80;;
10458;SDS011;5277;48.722;8.736;2023-03-24T12:44:26;1.00;;;0.60;;
10458;SDS011;5277;48.722;8.736;2023-03-24T12:47:12;0.70;;;0.47;;
10458;SDS011;5277;48.722;8.736;2023-03-24T12:58:18;1.25;;;0.55;;
10458;SDS011;5277;48.722;8.736;2023-03-24T13:01:04;0.80;;;0.50;;
10458;SDS011;5277;48.722;8.736;2023-03-24T13:03:40;0.68;;;0.60;;
10458;SDS011;5277;48.722;8.736;2023-03-24T13:06:15;0.70;;;0.60;;
10458;SDS011;5277;48.722;8.736;2023-03-24T13:08:57;0.60;;;0.52;;
10458;SDS011;5277;48.722;8.736;2023-03-24T13:11:36;0.70;;;0.70;;
10458;SDS011;5277;48.722;8.736;2023-03-24T13:14:13;3.22;;;0.70;;
10458;SDS011;5277;48.722;8.736;2023-03-24T13:16:42;0.93;;;0.57;;
10458;SDS011;5277;48.722;8.736;2023-03-24T13:19:15;2.08;;;0.80;;
10458;SDS011;5277;48.722;8.736;2023-03-24T13:21:45;0.50;;;0.50;;
10458;SDS011;5277;48.722;8.736;2023-03-24T13:24:12;1.05;;;0.80;;
10458;SDS011;5277;48.722;8.736;2023-03-24T13:26:39;1.88;;;0.80;;
10458;SDS011;5277;48.722;8.736;2023-03-24T13:29:30;0.73;;;0.70;;
10458;SDS011;5277;48.722;8.736;2023-03-24T13:37:19;0.90;;;0.73;;
10458;SDS011;5277;48.722;8.736;2023-03-24T13:39:49;3.92;;;0.88;;
10458;SDS011;5277;48.722;8.736;2023-03-24T13:44:55;1.33;;;0.82;;
10458;SDS011;5277;48.722;8.736;2023-03-24T13:47:24;1.25;;;0.65;;
10458;SDS011;5277;48.722;8.736;2023-03-24T13:50:00;1.50;;;0.90;;
10458;SDS011;5277;48.722;8.736;2023-03-24T13:52:33;4.82;;;0.90;;
10458;SDS011;5277;48.722;8.736;2023-03-24T13:55:06;1.38;;;0.63;;
10458;SDS011;5277;48.722;8.736;2023-03-24T13:58:05;3.10;;;1.02;;
10458;SDS011;5277;48.722;8.736;2023-03-24T14:03:32;2.65;;;1.00;;
10458;SDS011;5277;48.722;8.736;2023-03-24T14:06:15;1.58;;;0.90;;
10458;SDS011;5277;48.722;8.736;2023-03-24T14:09:28;0.90;;;0.80;;
10458;SDS011;5277;48.722;8.736;2023-03-24T14:11:42;1.55;;;1.25;;
10458;SDS011;5277;48.722;8.736;2023-03-24T14:16:48;2.50;;;1.25;;
10458;SDS011;5277;48.722;8.736;2023-03-24T14:19:40;1.85;;;1.17;;
10458;SDS011;5277;48.722;8.736;2023-03-24T14:22:33;2.92;;;1.25;;
10458;SDS011;5277;48.722;8.736;2023-03-24T14:28:24;1.88;;;1.23;;
10458;SDS011;5277;48.722;8.736;2023-03-24T14:30:33;4.60;;;1.42;;
10458;SDS011;5277;48.722;8.736;2023-03-24T14:33:02;1.60;;;0.93;;
10458;SDS011;5277;48.722;8.736;2023-03-24T14:35:38;2.97;;;0.95;;
10458;SDS011;5277;48.722;8.736;2023-03-24T14:40:40;2.17;;;1.48;;
10458;SDS011;5277;48.722;8.736;2023-03-24T14:48:26;3.08;;;0.82;;
10458;SDS011;5277;48.722;8.736;2023-03-24T14:51:35;1.58;;;0.82;;
10458;SDS011;5277;48.722;8.736;2023-03-24T14:54:11;2.70;;;1.05;;
10458;SDS011;5277;48.722;8.736;2023-03-24T14:56:44;2.33;;;0.82;;
10458;SDS011;5277;48.722;8.736;2023-03-24T14:59:24;1.10;;;0.60;;
10458;SDS011;5277;48.722;8.736;2023-03-24T15:02:15;1.85;;;0.88;;
10458;SDS011;5277;48.722;8.736;2023-03-24T15:07:58;2.55;;;0.70;;
10458;SDS011;5277;48.722;8.736;2023-03-24T15:10:36;2.63;;;0.75;;
10458;SDS011;5277;48.722;8.736;2023-03-24T15:15:53;1.83;;;0.80;;
10458;SDS011;5277;48.722;8.736;2023-03-24T15:18:19;1.33;;;0.80;;
10458;SDS011;5277;48.722;8.736;2023-03-24T15:20:46;2.22;;;0.98;;
10458;SDS011;5277;48.722;8.736;2023-03-24T15:23:23;2.78;;;1.30;;
10458;SDS011;5277;48.722;8.736;2023-03-24T15:25:50;1.58;;;1.20;;
10458;SDS011;5277;48.722;8.736;2023-03-24T15:28:20;5.07;;;1.60;;
10458;SDS011;5277;48.722;8.736;2023-03-24T15:30:49;2.13;;;1.40;;
10458;SDS011;5277;48.722;8.736;2023-03-24T15:33:15;1.73;;;1.10;;
10458;SDS011;5277;48.722;8.736;2023-03-24T15:35:42;1.20;;;0.90;;
10458;SDS011;5277;48.722;8.736;2023-03-24T15:38:18;2.03;;;1.05;;
10458;SDS011;5277;48.722;8.736;2023-03-24T15:40:56;1.70;;;1.25;;
10458;SDS011;5277;48.722;8.736;2023-03-24T15:43:32;2.10;;;1.42;;
10458;SDS011;5277;48.722;8.736;2023-03-24T15:45:58;2.15;;;0.80;;
10458;SDS011;5277;48.722;8.736;2023-03-24T15:48:29;3.08;;;1.00;;
10458;SDS011;5277;48.722;8.736;2023-03-24T15:50:59;2.38;;;1.00;;
10458;SDS011;5277;48.722;8.736;2023-03-24T15:56:01;4.82;;;0.90;;
10458;SDS011;5277;48.722;8.736;2023-03-24T15:58:43;1.20;;;0.82;;
10458;SDS011;5277;48.722;8.736;2023-03-24T16:01:09;1.80;;;0.70;;
10458;SDS011;5277;48.722;8.736;2023-03-24T16:03:38;1.10;;;0.80;;
10458;SDS011;5277;48.722;8.736;2023-03-24T16:06:11;1.83;;;1.00;;
10458;SDS011;5277;48.722;8.736;2023-03-24T16:08:39;2.20;;;0.70;;
10458;SDS011;5277;48.722;8.736;2023-03-24T16:11:11;1.25;;;0.85;;
10458;SDS011;5277;48.722;8.736;2023-03-24T16:13:38;0.90;;;0.75;;
10458;SDS011;5277;48.722;8.736;2023-03-24T16:18:38;1.00;;;0.80;;
10458;SDS011;5277;48.722;8.736;2023-03-24T16:21:15;1.45;;;0.95;;
10458;SDS011;5277;48.722;8.736;2023-03-24T16:23:45;0.95;;;0.90;;
10458;SDS011;5277;48.722;8.736;2023-03-24T16:26:13;1.20;;;0.98;;
10458;SDS011;5277;48.722;8.736;2023-03-24T16:28:49;1.55;;;1.10;;
10458;SDS011;5277;48.722;8.736;2023-03-24T16:33:52;1.90;;;1.10;;
10458;SDS011;5277;48.722;8.736;2023-03-24T16:36:19;1.05;;;0.95;;
10458;SDS011;5277;48.722;8.736;2023-03-24T16:38:46;2.47;;;1.55;;
10458;SDS011;5277;48.722;8.736;2023-03-24T16:41:15;3.53;;;1.10;;
10458;SDS011;5277;48.722;8.736;2023-03-24T16:43:42;1.58;;;1.20;;
10458;SDS011;5277;48.722;8.736;2023-03-24T16:46:10;2.15;;;1.20;;
10458;SDS011;5277;48.722;8.736;2023-03-24T16:48:38;7.85;;;1.38;;
10458;SDS011;5277;48.722;8.736;2023-03-24T16:51:03;6.70;;;1.75;;
10458;SDS011;5277;48.722;8.736;2023-03-24T16:53:29;5.50;;;1.50;;
10458;SDS011;5277;48.722;8.736;2023-03-24T16:55:55;5.15;;;1.25;;
10458;SDS011;5277;48.722;8.736;2023-03-24T16:58:21;4.68;;;2.05;;
10458;SDS011;5277;48.722;8.736;2023-03-24T17:00:46;2.75;;;1.70;;
10458;SDS011;5277;48.722;8.736;2023-03-24T17:03:13;4.07;;;1.60;;
10458;SDS011;5277;48.722;8.736;2023-03-24T17:08:10;3.53;;;1.63;;
10458;SDS011;5277;48.722;8.736;2023-03-24T17:10:36;4.32;;;1.85;;
10458;SDS011;5277;48.722;8.736;2023-03-24T17:13:03;4.65;;;1.80;;
10458;SDS011;5277;48.722;8.736;2023-03-24T17:15:29;4.85;;;1.60;;
10458;SDS011;5277;48.722;8.736;2023-03-24T17:17:55;2.17;;;1.33;;
10458;SDS011;5277;48.722;8.736;2023-03-24T17:20:21;7.55;;;1.63;;
10458;SDS011;5277;48.722;8.736;2023-03-24T17:22:49;2.40;;;1.42;;
10458;SDS011;5277;48.722;8.736;2023-03-24T17:25:17;9.80;;;1.52;;
10458;SDS011;5277;48.722;8.736;2023-03-24T17:27:47;1.90;;;1.60;;
10458;SDS011;5277;48.722;8.736;2023-03-24T17:30:15;7.97;;;1.77;;
10458;SDS011;5277;48.722;8.736;2023-03-24T17:32:46;4.00;;;2.10;;
10458;SDS011;5277;48.722;8.736;2023-03-24T17:35:13;2.85;;;1.67;;
10458;SDS011;5277;48.722;8.736;2023-03-24T17:37:40;6.47;;;1.90;;
10458;SDS011;5277;48.722;8.736;2023-03-24T17:40:06;4.43;;;1.70;;
10458;SDS011;5277;48.722;8.736;2023-03-24T17:42:35;2.85;;;1.60;;
10458;SDS011;5277;48.722;8.736;2023-03-24T17:45:02;5.72;;;2.03;;
10458;SDS011;5277;48.722;8.736;2023-03-24T17:47:29;2.30;;;1.60;;
10458;SDS011;5277;48.722;8.736;2023-03-24T17:49:55;7.10;;;1.63;;
10458;SDS011;5277;48.722;8.736;2023-03-24T17:52:21;5.15;;;2.13;;
10458;SDS011;5277;48.722;8.736;2023-03-24T17:54:47;3.72;;;2.42;;
10458;SDS011;5277;48.722;8.736;2023-03-24T17:57:12;5.93;;;1.90;;
10458;SDS011;5277;48.722;8.736;2023-03-24T17:59:38;3.65;;;2.22;;
10458;SDS011;5277;48.722;8.736;2023-03-24T18:02:04;4.07;;;1.85;;
10458;SDS011;5277;48.722;8.736;2023-03-24T18:04:31;4.90;;;2.05;;